createdAt,value
2019-03-06T00:00:40.324Z,2.30
2019-03-06T00:03:08.558Z,2.02
2019-03-06T00:05:37.163Z,2.35
2019-03-06T00:08:05.412Z,2.05
2019-03-06T00:10:33.632Z,2.25
2019-03-06T00:13:01.879Z,2.20
2019-03-06T00:15:30.083Z,2.05
2019-03-06T00:17:58.378Z,2.40
2019-03-06T00:20:26.612Z,3.42
2019-03-06T00:22:54.869Z,2.52
2019-03-06T00:25:23.087Z,3.08
2019-03-06T00:27:51.312Z,3.20
2019-03-06T00:30:20.021Z,3.30
2019-03-06T00:32:48.249Z,2.90
2019-03-06T00:35:18.134Z,2.52
2019-03-06T00:37:46.350Z,2.70
2019-03-06T00:40:16.234Z,3.08
2019-03-06T00:42:50.879Z,3.87
2019-03-06T00:45:19.101Z,3.02
2019-03-06T00:47:47.333Z,2.80
2019-03-06T00:50:15.577Z,3.62
2019-03-06T00:52:43.783Z,3.37
2019-03-06T00:55:12.267Z,3.15
2019-03-06T00:57:40.567Z,3.02
2019-03-06T01:00:12.205Z,2.90
2019-03-06T01:02:40.437Z,3.17
2019-03-06T01:05:09.985Z,3.67
2019-03-06T01:07:38.550Z,3.70
2019-03-06T01:10:13.440Z,3.20
2019-03-06T01:12:41.657Z,4.35
2019-03-06T01:15:12.586Z,4.08
2019-03-06T01:17:40.825Z,3.22
2019-03-06T01:20:10.997Z,3.55
2019-03-06T01:22:39.234Z,3.77
2019-03-06T01:25:17.961Z,3.72
2019-03-06T01:27:46.191Z,3.30
2019-03-06T01:30:22.782Z,3.22
2019-03-06T01:32:52.664Z,3.17
2019-03-06T01:35:38.499Z,2.77
2019-03-06T01:38:11.601Z,3.15
2019-03-06T01:40:50.323Z,3.75
2019-03-06T01:43:20.190Z,3.45
2019-03-06T01:45:48.417Z,4.10
2019-03-06T01:48:16.932Z,3.55
2019-03-06T01:50:45.210Z,3.65
2019-03-06T01:53:13.459Z,3.95
2019-03-06T01:55:41.677Z,3.60
2019-03-06T01:58:10.062Z,3.20
2019-03-06T02:00:38.555Z,3.08
2019-03-06T02:03:06.821Z,3.98
2019-03-06T02:05:35.050Z,4.12
2019-03-06T02:08:03.270Z,3.92
2019-03-06T02:10:31.522Z,4.92
2019-03-06T02:12:59.748Z,4.45
2019-03-06T02:15:28.006Z,4.12
2019-03-06T02:17:56.215Z,4.20
2019-03-06T02:20:24.466Z,4.50
2019-03-06T02:22:52.691Z,4.62
2019-03-06T02:25:20.938Z,4.60
2019-03-06T02:27:49.175Z,4.58
2019-03-06T02:30:19.952Z,5.20
2019-03-06T02:32:48.170Z,4.58
2019-03-06T02:35:16.407Z,4.58
2019-03-06T02:37:44.657Z,4.20
2019-03-06T02:40:13.229Z,4.62
2019-03-06T02:42:41.476Z,4.33
2019-03-06T02:45:22.298Z,4.08
2019-03-06T02:47:50.530Z,4.10
2019-03-06T02:50:19.113Z,3.20
2019-03-06T02:52:47.337Z,4.28
2019-03-06T02:55:16.328Z,3.92
2019-03-06T02:57:58.438Z,4.20
2019-03-06T03:00:34.564Z,3.75
2019-03-06T03:03:14.095Z,4.33
2019-03-06T03:05:44.052Z,3.95
2019-03-06T03:08:12.280Z,4.33
2019-03-06T03:10:40.501Z,4.97
2019-03-06T03:13:08.753Z,4.62
2019-03-06T03:15:36.966Z,4.60
2019-03-06T03:18:05.223Z,4.35
2019-03-06T03:20:33.435Z,5.80
2019-03-06T03:23:01.688Z,4.83
2019-03-06T03:25:30.215Z,5.78
2019-03-06T03:27:58.443Z,5.08
2019-03-06T03:30:26.693Z,5.08
2019-03-06T03:32:54.983Z,5.65
2019-03-06T03:35:23.203Z,5.70
2019-03-06T03:37:51.450Z,5.20
2019-03-06T03:40:19.677Z,5.25
2019-03-06T03:42:47.911Z,5.80
2019-03-06T03:45:16.593Z,5.87
2019-03-06T03:47:44.891Z,6.10
2019-03-06T03:50:13.112Z,5.58
2019-03-06T03:52:41.726Z,4.78
2019-03-06T03:55:12.425Z,4.75
2019-03-06T03:57:40.637Z,5.40
2019-03-06T04:00:12.177Z,6.55
2019-03-06T04:02:40.465Z,5.72
2019-03-06T04:05:09.822Z,6.08
2019-03-06T04:07:38.049Z,5.58
2019-03-06T04:10:09.155Z,5.55
2019-03-06T04:12:37.372Z,5.28
2019-03-06T04:15:09.099Z,5.90
2019-03-06T04:17:37.628Z,5.78
2019-03-06T04:20:09.123Z,5.60
2019-03-06T04:22:37.364Z,6.47
2019-03-06T04:25:06.783Z,5.35
2019-03-06T04:27:35.047Z,5.97
2019-03-06T04:30:04.311Z,5.70
2019-03-06T04:32:32.550Z,4.85
2019-03-06T04:35:00.773Z,4.28
2019-03-06T04:37:29.026Z,4.60
2019-03-06T04:39:57.264Z,4.67
2019-03-06T04:42:25.514Z,4.80
2019-03-06T04:44:55.368Z,4.33
2019-03-06T04:47:23.640Z,4.72
2019-03-06T04:49:52.930Z,4.60
2019-03-06T04:52:21.394Z,4.30
2019-03-06T04:54:49.676Z,4.40
2019-03-06T04:57:17.892Z,4.22
2019-03-06T04:59:46.131Z,4.47
2019-03-06T05:02:14.379Z,4.30
2019-03-06T05:04:42.598Z,4.55
2019-03-06T05:07:10.828Z,5.08
2019-03-06T05:09:39.343Z,4.42
2019-03-06T05:12:07.615Z,4.85
2019-03-06T05:14:35.840Z,4.53
2019-03-06T05:17:14.695Z,4.37
2019-03-06T05:19:42.932Z,4.62
2019-03-06T05:22:11.183Z,5.00
2019-03-06T05:24:39.443Z,5.15
2019-03-06T05:27:07.668Z,4.50
2019-03-06T05:29:35.914Z,4.67
2019-03-06T05:32:23.984Z,4.72
2019-03-06T05:34:52.225Z,4.17
2019-03-06T05:37:47.628Z,4.17
2019-03-06T05:40:15.871Z,4.53
2019-03-06T05:42:44.095Z,4.67
2019-03-06T05:45:12.326Z,4.75
2019-03-06T05:47:40.557Z,4.60
2019-03-06T05:50:09.165Z,4.70
2019-03-06T05:52:37.389Z,4.40
2019-03-06T05:55:06.563Z,5.67
2019-03-06T05:57:34.808Z,5.58
2019-03-06T06:00:10.989Z,5.05
2019-03-06T06:02:39.500Z,5.00
2019-03-06T06:05:11.132Z,5.25
2019-03-06T06:07:41.415Z,4.62
2019-03-06T06:10:11.739Z,4.90
2019-03-06T06:12:39.970Z,4.70
2019-03-06T06:15:15.416Z,4.53
2019-03-06T06:17:43.632Z,5.00
2019-03-06T06:20:16.340Z,4.10
2019-03-06T06:22:46.200Z,4.72
2019-03-06T06:25:14.696Z,3.92
2019-03-06T06:27:42.930Z,4.62
2019-03-06T06:30:12.878Z,5.05
2019-03-06T06:32:41.109Z,5.00
2019-03-06T06:35:10.981Z,4.60
2019-03-06T06:37:39.576Z,5.53
2019-03-06T06:40:12.616Z,4.92
2019-03-06T06:42:40.868Z,5.08
2019-03-06T06:45:11.706Z,5.28
2019-03-06T06:48:08.979Z,5.17
2019-03-06T06:50:40.251Z,4.95
2019-03-06T06:53:31.409Z,4.25
2019-03-06T06:56:05.573Z,4.33
2019-03-06T06:59:10.386Z,4.65
2019-03-06T07:02:12.142Z,4.50
2019-03-06T07:04:48.426Z,4.58
2019-03-06T07:07:30.621Z,3.70
2019-03-06T07:10:06.484Z,4.70
2019-03-06T07:15:20.927Z,4.03
2019-03-06T07:17:59.612Z,4.70
2019-03-06T07:20:46.059Z,3.45
2019-03-06T07:23:18.933Z,3.80
2019-03-06T07:25:48.880Z,3.10
2019-03-06T07:28:25.060Z,3.40
2019-03-06T07:30:54.924Z,3.00
2019-03-06T07:33:27.903Z,3.85
2019-03-06T07:36:00.898Z,4.10
2019-03-06T07:38:29.387Z,3.17
2019-03-06T07:41:15.627Z,3.52
2019-03-06T07:43:48.490Z,3.05
2019-03-06T07:46:18.733Z,3.60
2019-03-06T07:48:51.289Z,4.12
2019-03-06T07:51:33.168Z,3.40
2019-03-06T07:54:16.540Z,3.10
2019-03-06T07:56:49.911Z,2.62
2019-03-06T07:59:18.178Z,3.95
2019-03-06T08:01:58.320Z,3.25
2019-03-06T08:04:26.576Z,3.83
2019-03-06T08:06:56.448Z,3.17
2019-03-06T08:09:24.670Z,3.15
2019-03-06T08:11:54.556Z,2.87
2019-03-06T08:14:30.399Z,2.75
2019-03-06T08:17:00.304Z,3.30
2019-03-06T08:19:39.086Z,2.58
2019-03-06T08:22:18.080Z,2.65
2019-03-06T08:25:04.237Z,3.17
2019-03-06T08:27:32.473Z,2.77
2019-03-06T08:30:00.974Z,3.60
2019-03-06T08:32:30.091Z,3.20
2019-03-06T08:34:58.320Z,2.87
2019-03-06T08:37:26.558Z,3.50
2019-03-06T08:39:54.807Z,3.27
2019-03-06T08:42:23.036Z,2.83
2019-03-06T08:44:51.258Z,2.90
2019-03-06T08:47:21.151Z,3.17
2019-03-06T08:49:56.789Z,3.05
2019-03-06T08:52:35.552Z,3.35
2019-03-06T08:55:21.350Z,3.10
2019-03-06T08:57:57.175Z,2.58
2019-03-06T09:00:43.851Z,2.40
2019-03-06T09:03:19.966Z,3.50
2019-03-06T09:06:08.026Z,2.62
2019-03-06T09:08:54.332Z,2.98
2019-03-06T09:11:33.334Z,2.45
2019-03-06T09:14:05.916Z,2.70
2019-03-06T09:16:35.816Z,2.58
2019-03-06T09:19:22.236Z,3.10
2019-03-06T09:22:01.155Z,2.83
2019-03-06T09:24:33.972Z,2.45
2019-03-06T09:27:07.753Z,2.60
2019-03-06T09:29:39.953Z,2.00
2019-03-06T09:32:09.840Z,1.67
2019-03-06T09:34:42.195Z,2.17
2019-03-06T09:37:12.085Z,2.10
2019-03-06T09:39:44.883Z,2.35
2019-03-06T09:42:18.554Z,2.67
2019-03-06T09:44:48.614Z,2.47
2019-03-06T09:47:34.699Z,2.02
2019-03-06T09:50:04.865Z,2.55
2019-03-06T09:52:43.776Z,2.02
2019-03-06T09:55:30.246Z,2.17
2019-03-06T09:58:09.177Z,2.47
2019-03-06T10:00:41.777Z,2.20
2019-03-06T10:03:11.649Z,1.67
2019-03-06T10:05:41.532Z,1.55
2019-03-06T10:08:11.403Z,1.62
2019-03-06T10:10:47.754Z,1.50
2019-03-06T10:13:15.777Z,1.40
2019-03-06T10:15:48.333Z,1.60
2019-03-06T10:18:18.200Z,1.35
2019-03-06T10:20:46.423Z,1.37
2019-03-06T10:23:14.687Z,1.07
2019-03-06T10:25:42.917Z,0.82
2019-03-06T10:28:11.160Z,0.90
2019-03-06T10:30:39.484Z,0.98
2019-03-06T10:33:07.747Z,1.00
2019-03-06T10:35:36.057Z,1.12
2019-03-06T10:38:04.360Z,1.10
2019-03-06T10:40:32.677Z,1.10
2019-03-06T10:43:01.267Z,1.05
2019-03-06T10:45:29.582Z,0.70
2019-03-06T10:47:58.042Z,0.80
2019-03-06T10:52:56.313Z,0.70
2019-03-06T10:55:24.629Z,1.00
2019-03-06T10:57:53.232Z,0.65
2019-03-06T11:00:26.461Z,0.95
2019-03-06T11:02:56.795Z,0.53
2019-03-06T11:05:29.072Z,0.72
2019-03-06T11:07:57.517Z,0.80
2019-03-06T11:10:26.469Z,1.10
2019-03-06T11:12:55.741Z,0.60
2019-03-06T11:15:23.959Z,0.90
2019-03-06T11:17:52.473Z,0.60
2019-03-06T11:20:29.351Z,0.62
2019-03-06T11:22:58.722Z,0.75
2019-03-06T11:25:27.377Z,0.90
2019-03-06T11:27:55.612Z,1.00
2019-03-06T11:30:35.286Z,0.80
2019-03-06T11:33:03.594Z,0.78
2019-03-06T11:35:34.108Z,0.88
2019-03-06T11:38:02.132Z,0.70
2019-03-06T11:40:30.657Z,0.90
2019-03-06T11:42:58.948Z,0.93
2019-03-06T11:45:27.233Z,0.70
2019-03-06T11:47:55.511Z,0.70
2019-03-06T11:50:23.740Z,1.00
2019-03-06T11:52:51.992Z,0.60
2019-03-06T11:55:20.497Z,0.70
2019-03-06T11:57:48.738Z,0.70
2019-03-06T12:00:26.415Z,0.50
2019-03-06T12:02:54.667Z,0.80
2019-03-06T12:05:23.026Z,0.90
2019-03-06T12:07:51.266Z,0.90
2019-03-06T12:10:19.861Z,1.05
2019-03-06T12:12:48.168Z,0.65
2019-03-06T12:15:16.405Z,0.80
2019-03-06T12:17:44.732Z,0.82
2019-03-06T12:20:12.964Z,0.78
2019-03-06T12:22:41.212Z,0.80
2019-03-06T12:25:13.310Z,0.78
2019-03-06T12:27:41.558Z,0.93
2019-03-06T12:30:15.499Z,0.70
2019-03-06T12:32:45.559Z,0.80
2019-03-06T12:35:15.924Z,1.22
2019-03-06T12:37:47.145Z,0.98
2019-03-06T12:40:17.161Z,0.65
2019-03-06T12:42:45.397Z,1.15
2019-03-06T12:45:17.703Z,0.90
2019-03-06T12:47:55.109Z,0.93
2019-03-06T12:50:22.466Z,0.72
2019-03-06T12:52:50.699Z,1.02
2019-03-06T12:55:18.921Z,0.90
2019-03-06T12:57:47.179Z,1.05
2019-03-06T13:00:20.871Z,0.85
2019-03-06T13:02:49.120Z,0.95
2019-03-06T13:05:17.740Z,0.90
2019-03-06T13:07:46.000Z,0.90
2019-03-06T13:10:15.377Z,0.90
2019-03-06T13:12:43.686Z,0.98
2019-03-06T13:15:24.884Z,0.90
2019-03-06T13:17:53.455Z,0.85
2019-03-06T13:20:21.699Z,1.20
2019-03-06T13:22:50.710Z,1.10
2019-03-06T13:25:21.057Z,1.15
2019-03-06T13:27:54.757Z,0.70
2019-03-06T13:30:21.488Z,0.85
2019-03-06T13:33:09.597Z,1.20
2019-03-06T13:35:39.474Z,1.62
2019-03-06T13:38:07.733Z,0.75
2019-03-06T13:40:35.968Z,1.05
2019-03-06T13:43:04.434Z,0.85
2019-03-06T13:45:32.684Z,0.90
2019-03-06T13:48:00.913Z,1.07
2019-03-06T13:50:29.240Z,1.35
2019-03-06T13:52:57.484Z,0.90
2019-03-06T13:55:25.808Z,1.07
2019-03-06T13:57:54.132Z,1.02
2019-03-06T14:00:23.187Z,1.20
2019-03-06T14:02:53.327Z,0.80
2019-03-06T14:05:22.230Z,0.85
2019-03-06T14:07:56.475Z,0.90
2019-03-06T14:10:24.153Z,0.82
2019-03-06T14:12:52.751Z,1.10
2019-03-06T14:15:21.141Z,0.70
2019-03-06T14:17:49.366Z,1.35
2019-03-06T14:20:19.257Z,1.07
2019-03-06T14:22:47.479Z,1.10
2019-03-06T14:25:16.089Z,1.35
2019-03-06T14:27:44.742Z,1.00
2019-03-06T14:30:28.317Z,0.98
2019-03-06T14:32:56.582Z,1.07
2019-03-06T14:35:24.942Z,1.00
2019-03-06T14:37:53.184Z,1.20
2019-03-06T14:40:33.264Z,1.00
2019-03-06T14:43:03.716Z,1.20
2019-03-06T14:45:31.942Z,1.05
2019-03-06T14:48:00.245Z,1.37
2019-03-06T14:50:28.498Z,1.02
2019-03-06T14:52:57.102Z,0.80
2019-03-06T14:55:25.323Z,0.93
2019-03-06T14:57:53.570Z,1.15
2019-03-06T15:00:22.198Z,1.67
2019-03-06T15:02:50.425Z,1.47
2019-03-06T15:05:19.187Z,1.22
2019-03-06T15:07:47.826Z,1.00
2019-03-06T15:10:17.009Z,1.22
2019-03-06T15:12:45.331Z,1.75
2019-03-06T15:15:17.623Z,1.20
2019-03-06T15:17:45.892Z,1.32
2019-03-06T15:20:18.880Z,0.90
2019-03-06T15:22:49.705Z,1.35
2019-03-06T15:25:22.494Z,1.60
2019-03-06T15:27:50.728Z,1.57
2019-03-06T15:30:19.034Z,1.20
2019-03-06T15:32:47.351Z,1.40
2019-03-06T15:35:16.904Z,1.30
2019-03-06T15:37:45.179Z,1.75
2019-03-06T15:40:29.107Z,1.30
2019-03-06T15:42:57.452Z,1.90
2019-03-06T15:45:30.058Z,1.55
2019-03-06T15:47:59.457Z,1.47
2019-03-06T15:50:27.906Z,1.57
2019-03-06T15:52:56.166Z,1.85
2019-03-06T15:55:25.862Z,2.02
2019-03-06T15:57:54.176Z,1.90
2019-03-06T16:00:33.005Z,1.80
2019-03-06T16:03:01.595Z,2.15
2019-03-06T16:05:29.860Z,1.92
2019-03-06T16:07:58.455Z,1.87
2019-03-06T16:10:27.350Z,1.80
2019-03-06T16:12:55.576Z,2.12
2019-03-06T16:15:26.047Z,1.98
2019-03-06T16:17:54.763Z,2.30
2019-03-06T16:20:23.060Z,2.15
2019-03-06T16:22:51.289Z,1.77
2019-03-06T16:25:20.695Z,2.02
2019-03-06T16:27:48.949Z,2.10
2019-03-06T16:30:19.300Z,2.12
2019-03-06T16:32:47.571Z,1.60
2019-03-06T16:35:20.094Z,1.90
2019-03-06T16:37:48.413Z,2.12
2019-03-06T16:40:24.127Z,2.33
2019-03-06T16:42:52.381Z,2.05
2019-03-06T16:45:23.969Z,2.87
2019-03-06T16:47:52.217Z,2.33
2019-03-06T16:50:20.894Z,1.92
2019-03-06T16:52:49.114Z,2.40
2019-03-06T16:55:18.569Z,2.02
2019-03-06T16:57:46.806Z,2.47
2019-03-06T17:00:23.179Z,2.50
2019-03-06T17:02:51.458Z,2.27
2019-03-06T17:05:20.427Z,2.45
2019-03-06T17:07:49.396Z,2.47
2019-03-06T17:10:18.872Z,1.90
2019-03-06T17:12:47.090Z,2.20
2019-03-06T17:15:16.325Z,2.30
2019-03-06T17:17:44.575Z,3.45
2019-03-06T17:20:18.448Z,2.62
2019-03-06T17:22:47.309Z,2.12
2019-03-06T17:25:15.612Z,1.87
2019-03-06T17:27:44.365Z,2.33
2019-03-06T17:30:17.973Z,2.00
2019-03-06T17:32:51.712Z,1.98
2019-03-06T17:35:20.013Z,1.82
2019-03-06T17:37:48.261Z,2.30
2019-03-06T17:40:16.570Z,2.08
2019-03-06T17:42:44.894Z,1.80
2019-03-06T17:45:13.196Z,2.20
2019-03-06T17:47:41.448Z,2.08
2019-03-06T17:50:11.899Z,1.92
2019-03-06T17:52:40.331Z,2.12
2019-03-06T17:55:09.712Z,2.22
2019-03-06T17:57:39.964Z,3.72
2019-03-06T18:00:21.320Z,2.50
2019-03-06T18:02:49.554Z,2.35
2019-03-06T18:05:17.850Z,2.50
2019-03-06T18:07:46.119Z,2.37
2019-03-06T18:10:18.870Z,4.62
2019-03-06T18:12:47.218Z,2.50
2019-03-06T18:15:16.988Z,2.75
2019-03-06T18:17:45.464Z,3.08
2019-03-06T18:20:15.147Z,2.87
2019-03-06T18:22:43.382Z,3.10
2019-03-06T18:25:22.804Z,2.72
2019-03-06T18:27:51.124Z,3.90
2019-03-06T18:30:20.127Z,3.20
2019-03-06T18:32:48.471Z,3.35
2019-03-06T18:35:17.815Z,3.20
2019-03-06T18:37:46.139Z,2.85
2019-03-06T18:40:19.059Z,2.98
2019-03-06T18:42:47.366Z,2.50
2019-03-06T18:45:19.308Z,3.08
2019-03-06T18:47:47.572Z,2.70
2019-03-06T18:50:20.726Z,2.30
2019-03-06T18:52:49.125Z,2.50
2019-03-06T18:55:18.037Z,2.17
2019-03-06T18:57:46.333Z,3.20
2019-03-06T19:00:25.165Z,2.65
2019-03-06T19:02:53.439Z,3.02
2019-03-06T19:05:21.756Z,3.27
2019-03-06T19:07:50.342Z,3.42
2019-03-06T19:10:22.269Z,3.25
2019-03-06T19:12:50.767Z,3.42
2019-03-06T19:15:25.973Z,3.67
2019-03-06T19:17:54.243Z,3.33
2019-03-06T19:20:22.631Z,3.87
2019-03-06T19:22:51.679Z,3.27
2019-03-06T19:25:20.053Z,4.12
2019-03-06T19:27:48.674Z,3.80
2019-03-06T19:30:26.779Z,3.50
2019-03-06T19:32:55.097Z,3.15
2019-03-06T19:35:26.698Z,3.47
2019-03-06T19:37:55.003Z,3.70
2019-03-06T19:40:23.527Z,3.47
2019-03-06T19:42:51.840Z,3.37
2019-03-06T19:45:23.643Z,3.70
2019-03-06T19:47:51.946Z,3.35
2019-03-06T19:50:21.515Z,3.58
2019-03-06T19:52:49.801Z,3.12
2019-03-06T19:55:19.156Z,3.55
2019-03-06T19:57:52.970Z,3.92
2019-03-06T20:00:22.266Z,3.75
2019-03-06T20:02:50.827Z,3.35
2019-03-06T20:05:19.485Z,3.00
2019-03-06T20:07:47.723Z,3.85
2019-03-06T20:10:16.346Z,4.17
2019-03-06T20:12:44.576Z,2.77
2019-03-06T20:15:15.063Z,2.83
2019-03-06T20:17:43.370Z,3.25
2019-03-06T20:20:13.675Z,3.25
2019-03-06T20:22:41.995Z,3.40
2019-03-06T20:25:11.267Z,3.22
2019-03-06T20:27:39.587Z,3.00
2019-03-06T20:30:14.137Z,2.95
2019-03-06T20:32:42.359Z,2.80
2019-03-06T20:35:10.638Z,3.00
2019-03-06T20:37:38.947Z,3.25
2019-03-06T20:40:10.033Z,2.65
2019-03-06T20:42:38.274Z,2.90
2019-03-06T20:45:08.866Z,4.00
2019-03-06T20:47:37.178Z,3.08
2019-03-06T20:50:07.755Z,2.92
2019-03-06T20:52:36.076Z,2.77
2019-03-06T20:55:06.072Z,3.08
2019-03-06T20:57:34.354Z,2.92
2019-03-06T21:00:03.149Z,3.00
2019-03-06T21:02:31.456Z,2.80
2019-03-06T21:04:59.879Z,2.65
2019-03-06T21:07:28.101Z,3.10
2019-03-06T21:09:56.363Z,3.10
2019-03-06T21:12:24.593Z,2.50
2019-03-06T21:14:52.882Z,2.77
2019-03-06T21:17:21.174Z,2.87
2019-03-06T21:19:49.538Z,2.72
2019-03-06T21:22:17.848Z,2.77
2019-03-06T21:24:46.094Z,3.50
2019-03-06T21:27:14.325Z,3.20
2019-03-06T21:29:42.572Z,3.47
2019-03-06T21:32:10.823Z,2.77
2019-03-06T21:34:39.139Z,2.87
2019-03-06T21:37:07.464Z,3.37
2019-03-06T21:39:35.773Z,2.58
2019-03-06T21:42:04.005Z,3.27
2019-03-06T21:44:32.326Z,2.87
2019-03-06T21:47:00.634Z,3.60
2019-03-06T21:49:28.870Z,2.60
2019-03-06T21:51:57.109Z,3.47
2019-03-06T21:54:25.420Z,2.30
2019-03-06T21:56:53.752Z,3.00
2019-03-06T21:59:22.081Z,3.30
2019-03-06T22:01:50.396Z,3.40
2019-03-06T22:04:18.788Z,3.20
2019-03-06T22:06:47.140Z,3.17
2019-03-06T22:09:15.904Z,3.20
2019-03-06T22:11:44.133Z,3.75
2019-03-06T22:14:12.380Z,3.00
2019-03-06T22:16:40.623Z,3.05
2019-03-06T22:19:08.882Z,3.15
2019-03-06T22:21:37.139Z,3.37
2019-03-06T22:24:05.628Z,3.08
2019-03-06T22:26:34.132Z,2.45
2019-03-06T22:29:02.369Z,3.37
2019-03-06T22:31:30.609Z,2.52
2019-03-06T22:33:58.836Z,2.55
2019-03-06T22:36:27.072Z,2.95
2019-03-06T22:38:55.312Z,3.17
2019-03-06T22:41:23.730Z,2.60
2019-03-06T22:43:51.982Z,3.62
2019-03-06T22:46:20.202Z,3.77
2019-03-06T22:48:48.459Z,3.80
2019-03-06T22:51:16.697Z,3.80
2019-03-06T22:53:44.953Z,4.90
2019-03-06T22:56:13.565Z,3.98
2019-03-06T22:58:41.782Z,3.08
2019-03-06T23:01:22.372Z,3.67
2019-03-06T23:03:50.622Z,4.05
2019-03-06T23:06:18.942Z,4.12
2019-03-06T23:08:47.464Z,3.75
2019-03-06T23:11:15.705Z,3.47
2019-03-06T23:13:43.942Z,2.85
2019-03-06T23:16:12.182Z,3.72
2019-03-06T23:18:40.448Z,4.10
2019-03-06T23:21:08.675Z,3.72
2019-03-06T23:23:36.911Z,3.27
2019-03-06T23:26:05.152Z,3.27
2019-03-06T23:28:33.375Z,3.00
2019-03-06T23:31:01.610Z,3.62
2019-03-06T23:33:29.836Z,2.90
2019-03-06T23:35:58.095Z,3.15
2019-03-06T23:38:26.311Z,3.10
2019-03-06T23:40:54.559Z,3.10
2019-03-06T23:43:22.782Z,3.22
2019-03-06T23:45:51.012Z,3.15
2019-03-06T23:48:19.262Z,3.45
2019-03-06T23:50:47.499Z,3.50
2019-03-06T23:53:15.739Z,3.15
2019-03-06T23:55:43.985Z,3.17
2019-03-06T23:58:13.057Z,3.75
